Crawford, GA (30630)

02:38 AM EST am 26. Februar 2017 (GMT -0500)
MC2074 | | Change Station
aktive Warnung: Special Statement

Höhe 728 ft 33.87 °N, 83.11 °W | Updated 9 minutes ago

Heiter
Heiter
40.0 °F
gefühlte 40 °F
N
0.0
Wind Wechselnd Wind aus Nordwest
Gusts 3.0 mph

Heute
Max. -- | schwach -- °F
--% Regenrisiko
Gestern
Max. -- | schwach -- °F
Precip. -- inch
Druck 30.06 inch
Sichtweite 10.0 Meilen
Wolken Heiter
Windchill 40 °F
Taupunkt 24 °F
Feuchtigkeit 53%
Regen 0.00 inch
Schneehöhe Nicht verfügbar..
7:04 AM 6:26 PM
Letztes Viertel, 0% visible
METAR KAHN 260651Z AUTO 30007KT 10SM CLR 06/M07 A3006 RMK AO2 SLP179 T00611067
Druck 30.06 inch
Sichtweite 10.0 Meilen
Wolken Heiter
Windchill 40 °F
Taupunkt 24 °F
Feuchtigkeit 53%
Regen 0.00 inch
Schneehöhe Nicht verfügbar..
7:04 AM 6:26 PM
Letztes Viertel, 0% visible
METAR KAHN 260651Z AUTO 30007KT 10SM CLR 06/M07 A3006 RMK AO2 SLP179 T00611067

Get Your Daily Forecast Email!

Thanks for signing up!

Be on the lookout for a verification email in your inbox.

You'll start receiving the daily forecast at 8 AM.

×

10-Day Weather Forecast

Almanac

Astronomie

Feb. 26, 2017 Aufgang Untergang
Genaue Zeit
Bürgerliche Dämmerung
Nautische Dämmerung
Astronomische Dämmerung
Mond
Länge des sichtbaren Lichts
Tageslänge
Tomorrow will be .
, % of the Moon is Illuminated

Heutige Rekorde

State Highs State Lows

Community

WunderPhotos

Upload Photos

1,962,540 Fotos hochgeladen!

WunderBlog® & News

Nearby

Luftqualität

  Luftqualität LQ Index Schadstoff
Not available.

Schneehöhe

Station Depth Höhe

Erdbebenaktivität

Stadt Distance Mag. Time & Date
Minimum magnitude displayed is 2.5.

küstennahe Wassertemperaturen

Ort Temperatur

Stations

Wetterstationen in der Umgebung

Stationsstandort Temp. Windchill Taupunkt Feuchtigkeit Wind Precip. Höhe Aktualisiert Art
                   

Watches & Warnings

Special Statement
Issued: 18:19 EST Feb. 25, 2017 – National Weather Service

... High fire danger conditions expected Sunday afternoon for
north and central Georgia...

Relative humidities will fall between 20 and 25 percent for
several hours Sunday afternoon. This combined with dry fuels will
mean high fire danger conditions likely.

Sustained winds will be less than 10 mph.

Please refer to your local burn permitting authorities
concerning whether you may burn outdoors. If you do burn
outside, use extreme caution.



619 PM EST Sat Feb 25 2017

... High fire danger conditions expected Sunday afternoon for
north and central Georgia...

Relative humidities will fall between 20 and 25 percent for
several hours Sunday afternoon. This combined with dry fuels will
mean high fire danger conditions likely.

Sustained winds will be less than 10 mph.

Please refer to your local burn permitting authorities
concerning whether you may burn outdoors. If you do burn
outside, use extreme caution.